Time;durP1;ratioP1;P1;durP2;ratioP2;P2;SDS_P1;SDS_P2;PMS_P1;PMS_P2;Temp;Humidity;BMP_temperature;BMP_pressure;BME280_temperature;BME280_humidity;BME280_pressure;Samples;Min_cycle;Max_cycle;Signal;HPM_P1;HPM_P2
2022/12/25 00:01:16;;;;;;;20.30;12.13;;;;;;;12.60;99.43;100865.16;5109629;28;20048;-65
2022/12/25 00:03:44;;;;;;;14.43;9.98;;;;;;;12.60;99.05;100865.16;5085684;28;20248;-61
2022/12/25 00:06:11;;;;;;;17.60;10.23;;;;;;;12.64;99.00;100868.91;5107319;28;20048;-63
2022/12/25 00:08:39;;;;;;;16.55;10.25;;;;;;;12.47;100.00;100866.91;5079273;28;20048;-65
2022/12/25 00:11:12;;;;;;;15.98;11.30;;;;;;;12.41;100.00;100860.72;5078580;28;20040;-61
2022/12/25 00:13:41;;;;;;;16.30;11.23;;;;;;;12.32;100.00;100867.38;5098192;28;20527;-62
2022/12/25 00:16:12;;;;;;;17.13;10.85;;;;;;;12.31;100.00;100863.78;5096767;28;20048;-63
2022/12/25 00:18:39;;;;;;;19.52;11.57;;;;;;;12.41;100.00;100866.25;5079554;28;20052;-63
2022/12/25 00:21:07;;;;;;;17.60;11.13;;;;;;;12.50;100.00;100863.50;5097026;28;20048;-60
2022/12/25 00:23:34;;;;;;;14.82;10.35;;;;;;;12.46;100.00;100859.78;5097546;28;20056;-61
2022/12/25 00:26:06;;;;;;;17.08;9.82;;;;;;;12.59;100.00;100852.50;5098118;28;20052;-61
2022/12/25 00:28:34;;;;;;;17.70;10.57;;;;;;;12.73;99.33;100853.94;5078742;28;20052;-61
2022/12/25 00:31:07;;;;;;;16.77;9.63;;;;;;;12.80;98.64;100848.75;5100278;28;20047;-61
2022/12/25 00:33:38;;;;;;;13.77;9.10;;;;;;;12.56;98.66;100851.16;5078673;28;20059;-61
2022/12/25 00:36:07;;;;;;;14.80;9.35;;;;;;;12.69;98.99;100853.00;5107696;28;20118;-61
2022/12/25 00:38:35;;;;;;;15.05;9.40;;;;;;;12.60;98.60;100857.69;5097798;28;20054;-61
2022/12/25 00:41:14;;;;;;;12.93;9.15;;;;;;;12.62;99.04;100862.88;5082730;28;20059;-61
2022/12/25 00:43:42;;;;;;;14.18;9.70;;;;;;;12.67;98.72;100860.78;5093814;28;20063;-61
2022/12/25 00:46:11;;;;;;;15.65;9.82;;;;;;;12.73;98.85;100850.34;5080850;28;20070;-61
2022/12/25 00:48:39;;;;;;;14.30;9.57;;;;;;;12.85;97.55;100845.81;5104418;28;20043;-61
2022/12/25 00:51:09;;;;;;;11.40;8.25;;;;;;;12.82;97.26;100831.84;5105411;28;20055;-61
2022/12/25 00:53:37;;;;;;;10.52;8.10;;;;;;;12.80;97.35;100837.69;5106226;28;20502;-61
2022/12/25 00:56:06;;;;;;;15.35;8.43;;;;;;;13.06;96.85;100830.22;5104835;28;20051;-61
2022/12/25 00:58:34;;;;;;;15.20;8.02;;;;;;;13.07;95.85;100831.03;5105870;28;20050;-61
2022/12/25 01:01:02;;;;;;;12.82;7.93;;;;;;;12.94;95.65;100821.75;5101243;28;20112;-61
2022/12/25 01:03:29;;;;;;;13.07;8.50;;;;;;;13.01;95.76;100821.25;5102164;28;20414;-62
2022/12/25 01:06:01;;;;;;;13.00;8.02;;;;;;;13.18;94.95;100819.31;5062726;28;20411;-61
2022/12/25 01:08:30;;;;;;;12.40;8.25;;;;;;;13.12;94.87;100822.56;5087707;28;20414;-61
2022/12/25 01:11:00;;;;;;;13.02;8.65;;;;;;;13.03;95.19;100825.34;5096570;28;20044;-61
2022/12/25 01:13:29;;;;;;;16.00;8.43;;;;;;;12.95;95.96;100825.34;5077954;28;20056;-61
2022/12/25 01:15:56;;;;;;;13.10;8.93;;;;;;;13.03;96.27;100828.13;5094902;28;20070;-61
2022/12/25 01:18:24;;;;;;;14.57;9.13;;;;;;;12.82;96.74;100824.34;5100649;28;20355;-61
2022/12/25 01:20:51;;;;;;;13.55;9.75;;;;;;;12.79;97.24;100811.19;5110759;28;20047;-61
2022/12/25 01:23:18;;;;;;;15.50;9.98;;;;;;;12.85;97.52;100811.84;5062578;28;20526;-61
2022/12/25 01:25:46;;;;;;;15.63;10.80;;;;;;;12.92;96.75;100814.94;5094828;28;20044;-60
2022/12/25 01:28:14;;;;;;;16.77;10.18;;;;;;;12.89;97.15;100826.63;5094641;28;20059;-61
2022/12/25 01:30:47;;;;;;;14.77;9.88;;;;;;;12.91;97.13;100836.22;5101649;28;20151;-61
2022/12/25 01:33:14;;;;;;;15.57;10.68;;;;;;;12.79;97.17;100843.53;5110040;28;20047;-62
2022/12/25 01:35:42;;;;;;;20.42;10.73;;;;;;;12.81;97.95;100841.28;5108828;28;20052;-62
2022/12/25 01:38:09;;;;;;;15.60;10.00;;;;;;;13.00;96.96;100842.56;5095506;28;20379;-62
2022/12/25 01:40:38;;;;;;;19.58;10.25;;;;;;;12.92;96.91;100848.13;5095725;28;20048;-62
2022/12/25 01:43:21;;;;;;;18.13;11.30;;;;;;;12.81;97.74;100849.56;5085498;28;20501;-61
2022/12/25 01:45:51;;;;;;;18.17;10.00;;;;;;;12.79;98.76;100854.59;5093432;28;20398;-61
2022/12/25 01:48:22;;;;;;;17.77;11.05;;;;;;;12.88;97.50;100841.59;5095440;28;20052;-62
2022/12/25 01:50:56;;;;;;;18.80;10.63;;;;;;;12.90;97.29;100839.31;5068124;28;20371;-61
2022/12/25 01:53:25;;;;;;;16.13;9.63;;;;;;;12.72;98.02;100838.50;5095301;28;20071;-62
2022/12/25 01:55:56;;;;;;;14.82;9.80;;;;;;;12.83;98.19;100839.78;5106379;28;20062;-61
2022/12/25 01:58:24;;;;;;;15.85;9.25;;;;;;;12.83;98.52;100830.72;5095447;28;20522;-62
2022/12/25 02:00:51;;;;;;;14.77;8.95;;;;;;;12.91;97.93;100825.19;5097897;28;20048;-62
2022/12/25 02:03:20;;;;;;;14.40;9.00;;;;;;;12.97;97.37;100823.06;5095993;28;20060;-62
2022/12/25 02:05:47;;;;;;;15.60;8.95;;;;;;;12.81;97.32;100816.41;5094515;28;20044;-62
2022/12/25 02:08:16;;;;;;;15.60;8.68;;;;;;;12.92;97.79;100823.22;5096076;28;20529;-62
2022/12/25 02:10:44;;;;;;;15.45;8.10;;;;;;;12.92;97.20;100821.25;5087969;28;20040;-61
2022/12/25 02:13:13;;;;;;;12.35;8.07;;;;;;;13.06;97.00;100830.22;5095917;28;20043;-62
2022/12/25 02:16:11;;;;;;;13.55;8.05;;;;;;;13.03;96.70;100833.66;5084505;28;20048;-61
2022/12/25 02:18:44;;;;;;;12.63;7.70;;;;;;;13.06;96.55;100819.16;5058030;28;20045;-62
2022/12/25 02:21:39;;;;;;;13.85;8.30;;;;;;;12.93;96.90;100814.59;5087971;28;20040;-62
2022/12/25 02:24:18;;;;;;;13.15;7.18;;;;;;;12.95;97.34;100805.97;5088491;28;20052;-61
2022/12/25 02:27:31;;;;;;;12.30;7.32;;;;;;;12.93;97.45;100805.50;5094241;28;20064;-61
2022/12/25 02:30:03;;;;;;;11.25;6.78;;;;;;;12.88;97.14;100823.06;5072394;28;20067;-62
2022/12/25 02:34:01;;;;;;;11.05;7.32;;;;;;;12.92;97.54;100817.69;5093857;28;20499;-62
2022/12/25 02:35:41;;;;;;;13.07;7.73;;;;;;;12.81;97.22;100805.34;5092033;28;20047;-62
2022/12/25 02:38:24;;;;;;;12.93;7.55;;;;;;;12.87;98.29;100801.25;5097879;28;20297;-63
2022/12/25 02:40:56;;;;;;;11.48;7.35;;;;;;;12.79;97.74;100802.09;5084157;28;20052;-62
2022/12/25 03:08:52;;;;;;;14.10;8.35;;;;;;;12.88;99.13;100783.53;5090313;28;20058;-62
2022/12/25 03:11:31;;;;;;;14.32;6.78;;;;;;;12.85;98.99;100784.22;5091153;28;20059;-62
2022/12/25 03:16:53;;;;;;;15.10;7.68;;;;;;;12.67;100.00;100772.34;5078672;28;20059;-65
2022/12/25 03:27:51;;;;;;;15.38;9.38;;;;;;;12.74;100.00;100767.16;5081904;28;20506;-62
2022/12/25 03:33:21;;;;;;;16.27;9.75;;;;;;;12.62;100.00;100753.19;5083135;28;20063;-62
2022/12/25 03:36:14;;;;;;;18.23;9.95;;;;;;;12.74;100.00;100745.03;5109466;28;20044;-62
2022/12/25 04:37:23;;;;;;;28.42;19.90;;;;;;;12.91;100.00;100670.34;5080355;28;20123;-65
2022/12/25 04:39:50;;;;;;;40.05;21.25;;;;;;;12.72;100.00;100672.69;5096858;28;20056;-65
2022/12/25 04:42:18;;;;;;;35.53;19.40;;;;;;;12.73;100.00;100676.25;5099962;28;20044;-65
2022/12/25 04:44:45;;;;;;;34.60;19.90;;;;;;;12.65;100.00;100683.44;5099215;28;20055;-65
2022/12/25 04:47:12;;;;;;;39.78;20.65;;;;;;;12.43;100.00;100692.72;5081882;28;20410;-64
2022/12/25 04:49:40;;;;;;;34.25;19.77;;;;;;;12.56;100.00;100701.97;5097768;28;20056;-61
2022/12/25 04:52:07;;;;;;;28.27;19.75;;;;;;;12.56;100.00;100704.72;5096155;28;20044;-64
2022/12/25 04:54:37;;;;;;;30.63;20.15;;;;;;;12.55;100.00;100707.81;5095588;28;20124;-65
2022/12/25 04:57:04;;;;;;;29.83;19.13;;;;;;;12.50;100.00;100706.03;5095557;28;20040;-65
2022/12/25 04:59:31;;;;;;;31.42;19.98;;;;;;;12.48;100.00;100690.94;5095905;28;20051;-66
2022/12/25 05:01:59;;;;;;;35.90;19.90;;;;;;;12.79;100.00;100691.53;5098869;28;20506;-66
2022/12/25 05:04:26;;;;;;;30.38;19.27;;;;;;;12.74;100.00;100683.41;5077677;28;20057;-61
2022/12/25 05:06:54;;;;;;;28.10;18.30;;;;;;;12.74;100.00;100651.06;5079696;28;20442;-66
2022/12/25 05:09:21;;;;;;;27.00;17.35;;;;;;;12.99;100.00;100618.94;5078854;28;20055;-62
2022/12/25 05:11:49;;;;;;;28.48;17.60;;;;;;;12.93;100.00;100592.63;5094001;28;20138;-62
2022/12/25 05:14:16;;;;;;;29.10;16.38;;;;;;;12.77;100.00;100600.66;5096105;28;20059;-61
2022/12/25 05:16:44;;;;;;;31.48;17.30;;;;;;;12.71;100.00;100613.00;5083554;28;20051;-66
2022/12/25 05:19:11;;;;;;;31.58;17.08;;;;;;;12.94;100.00;100617.16;5115872;28;20051;-65
2022/12/25 05:21:38;;;;;;;25.92;15.63;;;;;;;12.90;100.00;100640.28;5104993;28;20051;-65
2022/12/25 05:24:06;;;;;;;27.27;16.05;;;;;;;12.62;100.00;100645.41;5107138;28;20063;-65
2022/12/25 05:26:33;;;;;;;22.23;14.93;;;;;;;12.63;100.00;100629.63;5079242;28;20078;-65
2022/12/25 05:29:00;;;;;;;28.08;16.40;;;;;;;12.69;100.00;100631.91;5108823;28;20394;-65
2022/12/25 05:31:28;;;;;;;22.60;14.90;;;;;;;12.61;100.00;100634.66;5081275;28;20048;-65
2022/12/25 05:33:55;;;;;;;22.88;14.80;;;;;;;12.67;100.00;100625.06;5098927;28;20048;-65
2022/12/25 05:36:22;;;;;;;21.60;13.85;;;;;;;12.71;100.00;100626.81;5095503;28;20055;-65
2022/12/25 05:38:50;;;;;;;21.35;14.52;;;;;;;12.82;100.00;100639.16;5078938;28;20052;-62
2022/12/25 05:41:17;;;;;;;19.90;13.65;;;;;;;12.79;100.00;100661.13;5078031;28;20063;-62
2022/12/25 05:43:45;;;;;;;26.25;13.20;;;;;;;12.81;100.00;100647.78;5095508;28;20044;-61
2022/12/25 05:46:13;;;;;;;20.88;13.15;;;;;;;12.96;100.00;100659.13;5095142;28;20043;-61
2022/12/25 05:48:40;;;;;;;28.10;14.20;;;;;;;12.81;100.00;100650.56;5096604;28;20044;-60
2022/12/25 05:51:10;;;;;;;23.42;13.43;;;;;;;12.83;100.00;100646.28;5096360;28;20048;-61
2022/12/25 05:53:38;;;;;;;;;;;;;;;12.77;100.00;100647.63;5095534;28;20384;-62
2022/12/25 05:56:06;;;;;;;21.02;13.40;;;;;;;12.77;100.00;100639.34;5097971;28;19920;-61
2022/12/25 05:58:35;;;;;;;25.55;14.07;;;;;;;12.96;100.00;100641.72;5096163;28;20510;-65
2022/12/25 06:01:03;;;;;;;21.80;13.60;;;;;;;12.92;100.00;100638.00;5098497;28;20048;-65
2022/12/25 06:03:30;;;;;;;20.50;12.57;;;;;;;13.08;100.00;100634.38;5094584;28;20040;-61
2022/12/25 06:05:58;;;;;;;19.67;13.20;;;;;;;12.93;100.00;100632.13;5078297;28;20067;-62
2022/12/25 06:08:25;;;;;;;27.02;13.30;;;;;;;12.87;100.00;100635.38;5106051;28;20040;-61
2022/12/25 06:10:52;;;;;;;21.88;12.75;;;;;;;12.80;100.00;100633.16;5078912;28;20059;-66
2022/12/25 06:13:20;;;;;;;19.60;13.00;;;;;;;12.83;100.00;100624.19;5077008;28;20052;-65
2022/12/25 06:15:47;;;;;;;18.95;11.40;;;;;;;12.78;100.00;100623.56;5098328;28;20409;-65
2022/12/25 06:18:15;;;;;;;23.45;12.35;;;;;;;12.82;100.00;100610.69;5095964;28;20058;-62
2022/12/25 06:20:42;;;;;;;18.13;11.90;;;;;;;12.84;100.00;100609.25;5093990;28;20060;-61
2022/12/25 06:23:10;;;;;;;18.30;12.00;;;;;;;12.82;100.00;100603.22;5095532;28;20036;-62
2022/12/25 06:25:39;;;;;;;22.80;13.10;;;;;;;12.66;100.00;100604.09;5076497;28;20463;-61
2022/12/25 06:28:06;;;;;;;24.17;12.68;;;;;;;12.80;100.00;100597.22;5095338;28;20047;-62
2022/12/25 06:30:33;;;;;;;18.70;12.10;;;;;;;12.91;100.00;100592.94;5097818;28;20056;-62
2022/12/25 06:33:01;;;;;;;21.55;11.93;;;;;;;12.85;100.00;100590.72;5095562;28;20047;-62
2022/12/25 06:35:28;;;;;;;20.90;11.57;;;;;;;12.82;100.00;100581.09;5075460;28;20051;-62
2022/12/25 06:37:56;;;;;;;24.33;12.07;;;;;;;12.92;100.00;100585.47;5095713;28;20055;-65
2022/12/25 06:40:23;;;;;;;19.50;11.63;;;;;;;12.80;100.00;100588.91;5097177;28;20051;-65
2022/12/25 06:42:50;;;;;;;17.92;11.15;;;;;;;12.81;100.00;100576.75;5104970;28;20419;-65
2022/12/25 06:45:18;;;;;;;17.92;10.65;;;;;;;12.72;100.00;100570.44;5110265;28;20062;-66
2022/12/25 06:47:45;;;;;;;22.70;11.18;;;;;;;12.69;100.00;100570.28;5077547;28;20075;-66
2022/12/25 06:50:12;;;;;;;15.57;10.77;;;;;;;12.59;100.00;100576.19;5113371;28;20051;-64
2022/12/25 06:52:40;;;;;;;21.17;11.05;;;;;;;12.62;100.00;100581.84;5094770;28;20055;-65
2022/12/25 06:55:08;;;;;;;17.10;10.43;;;;;;;12.76;100.00;100579.66;5104745;28;20043;-65
2022/12/25 06:57:35;;;;;;;18.00;10.05;;;;;;;12.60;100.00;100589.66;5076952;28;20052;-65
2022/12/25 07:00:03;;;;;;;20.40;10.20;;;;;;;12.65;100.00;100583.94;5106547;28;20059;-65
2022/12/25 07:02:32;;;;;;;15.30;9.93;;;;;;;12.53;100.00;100591.28;5094833;28;20395;-65
2022/12/25 07:05:00;;;;;;;21.88;10.60;;;;;;;12.61;100.00;100607.03;5076632;28;20507;-66
2022/12/25 07:07:27;;;;;;;21.27;9.50;;;;;;;12.52;100.00;100609.81;5093267;28;20048;-65
2022/12/25 07:09:55;;;;;;;17.40;10.10;;;;;;;12.58;100.00;100608.50;5068390;28;20063;-66
2022/12/25 07:12:23;;;;;;;17.20;9.68;;;;;;;12.90;100.00;100605.13;5096831;28;20048;-64
2022/12/25 07:14:53;;;;;;;14.35;9.05;;;;;;;12.93;100.00;100593.44;5084086;28;20027;-65
2022/12/25 07:17:20;;;;;;;17.77;9.00;;;;;;;12.87;99.18;100589.22;5105991;28;20055;-65
2022/12/25 07:19:48;;;;;;;16.80;9.15;;;;;;;12.72;100.00;100573.19;5078779;28;20055;-61
2022/12/25 07:22:15;;;;;;;17.90;8.70;;;;;;;12.62;100.00;100568.03;5099742;28;20055;-61
2022/12/25 07:24:43;;;;;;;17.48;9.30;;;;;;;12.76;100.00;100554.00;5094978;28;20044;-65
2022/12/25 07:27:10;;;;;;;20.13;8.85;;;;;;;12.55;100.00;100548.41;5076526;28;20044;-67
2022/12/25 07:29:37;;;;;;;16.10;8.98;;;;;;;12.53;100.00;100536.03;5094395;28;20048;-66
2022/12/25 07:32:05;;;;;;;20.52;8.38;;;;;;;12.52;100.00;100524.16;5072454;28;20047;-65
2022/12/25 07:34:32;;;;;;;15.98;8.20;;;;;;;12.45;100.00;100527.44;5094631;28;20589;-65
2022/12/25 07:36:59;;;;;;;15.70;8.32;;;;;;;12.35;100.00;100518.72;5075894;28;20052;-65
2022/12/25 07:39:27;;;;;;;17.05;8.55;;;;;;;12.48;100.00;100526.00;5094040;28;20048;-66
2022/12/25 07:41:54;;;;;;;17.60;8.55;;;;;;;12.43;100.00;100513.16;5094122;28;20052;-61
2022/12/25 07:44:25;;;;;;;14.38;7.60;;;;;;;12.59;100.00;100507.09;5093236;28;20483;-61
2022/12/25 07:46:52;;;;;;;17.30;7.80;;;;;;;12.58;100.00;100495.22;5075181;28;20526;-62
2022/12/25 07:49:20;;;;;;;17.35;8.82;;;;;;;12.53;100.00;100497.34;5096630;28;20410;-67
2022/12/25 07:51:47;;;;;;;21.88;12.23;;;;;;;12.47;100.00;100529.88;5099849;28;20051;-68
2022/12/25 07:54:14;;;;;;;14.93;7.82;;;;;;;12.51;100.00;100541.06;5089052;28;20055;-66
2022/12/25 07:56:42;;;;;;;20.42;8.45;;;;;;;12.39;100.00;100550.06;5076187;28;20490;-65
2022/12/25 07:59:09;;;;;;;18.90;7.03;;;;;;;12.36;100.00;100546.00;5094308;28;20063;-65
2022/12/25 08:01:36;;;;;;;16.45;7.70;;;;;;;12.47;100.00;100565.78;5094375;28;20052;-66
2022/12/25 08:04:04;;;;;;;16.88;7.72;;;;;;;12.42;100.00;100558.50;5093624;28;20044;-65
2022/12/25 08:06:33;;;;;;;26.23;15.82;;;;;;;12.57;100.00;100548.84;5094171;28;20048;-61
2022/12/25 08:09:06;;;;;;;19.90;11.13;;;;;;;12.54;99.24;100560.56;5094386;28;20051;-61
2022/12/25 08:11:33;;;;;;;25.00;18.15;;;;;;;12.77;98.84;100552.84;5094165;28;20044;-61
2022/12/25 08:14:03;;;;;;;18.90;12.45;;;;;;;12.61;98.47;100563.63;5096337;28;20047;-66
2022/12/25 08:16:31;;;;;;;;;;;;;;;12.56;98.95;100580.41;5063096;28;20047;-66
2022/12/25 08:18:58;;;;;;;22.23;15.93;;;;;;;12.71;98.66;100571.56;5098479;28;19931;-66
2022/12/25 08:21:25;;;;;;;18.27;11.02;;;;;;;12.72;98.00;100559.38;5076606;28;20104;-67
2022/12/25 08:23:53;;;;;;;14.18;7.80;;;;;;;12.51;98.02;100558.47;5104512;28;20039;-68
2022/12/25 08:26:21;;;;;;;13.82;7.38;;;;;;;12.59;98.53;100560.38;5106706;28;20048;-63
2022/12/25 08:28:49;;;;;;;22.05;8.73;;;;;;;12.73;98.77;100549.94;5078152;28;20055;-63
2022/12/25 08:31:25;;;;;;;16.73;9.18;;;;;;;12.63;97.58;100542.00;5088987;28;20052;-63
2022/12/25 08:33:54;;;;;;;17.80;9.48;;;;;;;12.42;98.78;100546.63;5079323;28;20052;-62
2022/12/25 08:36:22;;;;;;;16.30;8.77;;;;;;;12.51;98.72;100536.38;5088762;28;20060;-61
2022/12/25 08:38:50;;;;;;;17.27;7.00;;;;;;;12.81;97.76;100543.56;5099727;28;20658;-62
2022/12/25 08:41:25;;;;;;;11.48;7.55;;;;;;;12.75;96.47;100542.13;5098897;28;20071;-64
2022/12/25 08:43:52;;;;;;;13.90;6.88;;;;;;;12.56;97.36;100538.94;5100122;28;20040;-62
2022/12/25 08:46:20;;;;;;;15.50;7.88;;;;;;;12.60;96.99;100533.56;5092332;28;20036;-61
2022/12/25 08:48:48;;;;;;;16.02;7.65;;;;;;;12.47;97.73;100529.88;5069598;28;20523;-62
2022/12/25 08:51:18;;;;;;;14.68;7.78;;;;;;;12.30;98.03;100519.72;5089455;28;20048;-63
2022/12/25 08:53:47;;;;;;;14.50;7.72;;;;;;;12.45;97.93;100521.09;5073554;28;20052;-61
2022/12/25 08:56:15;;;;;;;17.77;8.00;;;;;;;12.76;96.65;100538.19;5059145;28;20056;-63
2022/12/25 08:58:42;;;;;;;12.38;6.70;;;;;;;12.82;95.63;100544.34;5096921;28;20452;-61
2022/12/25 09:01:11;;;;;;;17.80;7.45;;;;;;;12.77;94.33;100547.31;5075265;28;20048;-63
2022/12/25 09:03:38;;;;;;;13.82;7.22;;;;;;;12.56;95.93;100550.00;5091461;28;20059;-62
2022/12/25 09:06:08;;;;;;;17.48;11.60;;;;;;;12.59;95.96;100543.81;5077717;28;20048;-63
2022/12/25 09:08:36;;;;;;;24.90;17.02;;;;;;;12.71;95.61;100534.84;5073559;28;20039;-62
2022/12/25 09:11:13;;;;;;;14.68;6.80;;;;;;;12.75;94.13;100531.06;5084786;28;20467;-63
2022/12/25 09:13:40;;;;;;;13.77;7.00;;;;;;;12.43;94.46;100532.50;5095655;28;20122;-63
2022/12/25 09:16:10;;;;;;;12.80;6.80;;;;;;;12.69;94.70;100535.19;5077138;28;20055;-62
2022/12/25 09:18:38;;;;;;;13.18;6.15;;;;;;;12.75;93.68;100544.88;5096530;28;20051;-63
2022/12/25 09:21:08;;;;;;;16.20;6.85;;;;;;;12.92;92.91;100538.47;5072017;28;20052;-63
2022/12/25 09:23:36;;;;;;;12.77;7.10;;;;;;;12.91;91.92;100550.66;5111914;28;20491;-63
2022/12/25 09:26:05;;;;;;;16.05;11.10;;;;;;;13.02;91.68;100566.56;5088105;28;20041;-63
2022/12/25 09:28:33;;;;;;;10.80;6.88;;;;;;;12.86;91.76;100568.25;5090981;28;20051;-63
2022/12/25 09:31:00;;;;;;;12.98;6.40;;;;;;;12.96;91.28;100558.75;5080672;28;20052;-63
2022/12/25 09:33:28;;;;;;;10.32;5.43;;;;;;;12.90;91.23;100540.75;5073556;28;20055;-63
2022/12/25 09:36:00;;;;;;;13.18;5.80;;;;;;;12.91;91.40;100545.13;5089117;28;20036;-62
2022/12/25 09:38:28;;;;;;;12.90;5.75;;;;;;;12.81;91.34;100538.03;5092543;28;20051;-61
2022/12/25 09:41:07;;;;;;;11.15;6.43;;;;;;;12.90;90.49;100538.00;5085518;28;20066;-62
2022/12/25 09:43:41;;;;;;;11.52;6.03;;;;;;;12.84;89.80;100534.59;5077874;28;20048;-62
2022/12/25 09:46:14;;;;;;;13.85;5.85;;;;;;;12.83;90.56;100524.66;5073046;28;20138;-62
2022/12/25 09:48:47;;;;;;;11.82;6.22;;;;;;;12.72;90.69;100536.44;5075518;28;20055;-63
2022/12/25 09:51:15;;;;;;;11.32;5.72;;;;;;;12.69;90.60;100537.94;5091079;28;20067;-62
2022/12/25 09:53:49;;;;;;;15.25;6.25;;;;;;;12.68;90.48;100557.59;5084858;28;20049;-62
2022/12/25 09:56:19;;;;;;;11.45;6.25;;;;;;;12.71;90.55;100556.94;5075110;28;20040;-63
2022/12/25 09:58:46;;;;;;;12.07;6.38;;;;;;;12.69;90.38;100546.22;5117258;27;20526;-63
2022/12/25 10:01:20;;;;;;;13.25;6.13;;;;;;;12.73;90.27;100536.09;5105285;28;20060;-63
2022/12/25 10:03:59;;;;;;;11.15;5.57;;;;;;;12.78;90.36;100543.41;5095586;28;20521;-63
2022/12/25 10:06:39;;;;;;;12.23;5.87;;;;;;;12.86;90.03;100529.56;5089859;28;20032;-63
2022/12/25 10:09:19;;;;;;;11.65;6.55;;;;;;;12.79;89.42;100533.97;5042420;28;20494;-63
2022/12/25 10:12:05;;;;;;;11.43;6.20;;;;;;;12.74;89.71;100537.75;5092382;28;20585;-62
2022/12/25 10:14:35;;;;;;;13.52;6.20;;;;;;;13.02;89.01;100541.69;5089241;28;20306;-63
2022/12/25 10:17:40;;;;;;;14.65;6.38;;;;;;;13.01;87.82;100530.91;5086299;28;20043;-63
2022/12/25 10:20:33;;;;;;;13.77;6.25;;;;;;;12.93;88.34;100520.72;5094875;28;20055;-63
2022/12/25 10:23:03;;;;;;;15.55;6.20;;;;;;;13.01;87.70;100528.16;5089414;28;20058;-63
2022/12/25 10:25:31;;;;;;;12.38;5.47;;;;;;;12.90;87.28;100532.47;5065810;28;20052;-64
2022/12/25 10:28:03;;;;;;;11.60;5.70;;;;;;;13.08;87.79;100522.94;5087572;28;20487;-63
2022/12/25 10:30:31;;;;;;;10.32;5.20;;;;;;;13.10;87.09;100513.19;5091195;28;20049;-63
2022/12/25 10:32:59;;;;;;;10.95;6.43;;;;;;;13.10;86.75;100502.13;5070867;28;20534;-64
2022/12/25 10:35:28;;;;;;;11.27;6.85;;;;;;;13.16;86.65;100509.06;5090241;28;20054;-63
2022/12/25 10:38:01;;;;;;;12.02;6.05;;;;;;;13.03;87.27;100518.44;5088214;28;20404;-63
2022/12/25 10:40:58;;;;;;;13.45;5.82;;;;;;;13.10;87.39;100537.25;5092085;28;20051;-62
2022/12/25 10:43:32;;;;;;;15.32;6.43;;;;;;;12.98;87.50;100526.88;5069171;28;20059;-64
2022/12/25 10:45:59;;;;;;;11.82;5.35;;;;;;;13.07;87.03;100511.09;5089553;28;20040;-63
2022/12/25 10:48:28;;;;;;;12.20;5.80;;;;;;;12.85;86.77;100508.56;5095232;28;20048;-64
2022/12/25 10:50:56;;;;;;;13.68;5.90;;;;;;;12.95;87.78;100493.56;5091343;28;20123;-62
2022/12/25 10:53:27;;;;;;;11.63;5.97;;;;;;;13.09;87.27;100508.78;5094423;28;20040;-64
2022/12/25 10:56:01;;;;;;;11.95;5.40;;;;;;;13.04;86.36;100510.94;5078294;28;20427;-61
2022/12/25 10:58:29;;;;;;;10.88;5.60;;;;;;;13.02;86.62;100508.50;5057908;28;20052;-64
2022/12/25 11:01:05;;;;;;;12.82;5.88;;;;;;;13.14;86.27;100518.84;5074369;28;20044;-62
2022/12/25 11:03:42;;;;;;;11.13;6.22;;;;;;;13.35;85.72;100520.47;5070912;28;20059;-62
2022/12/25 11:06:26;;;;;;;9.73;5.50;;;;;;;13.51;85.27;100509.66;5072577;28;20045;-62
2022/12/25 11:08:57;;;;;;;9.45;6.22;;;;;;;13.37;84.70;100515.41;5071947;28;20052;-64
2022/12/25 11:11:26;;;;;;;17.85;5.85;;;;;;;13.35;85.07;100503.88;5072843;28;20049;-62
2022/12/25 11:13:58;;;;;;;14.30;5.88;;;;;;;13.33;85.16;100491.53;5054972;28;20053;-63
2022/12/25 11:16:25;;;;;;;12.70;6.40;;;;;;;13.30;84.78;100506.84;5074030;28;20044;-63
2022/12/25 11:18:54;;;;;;;8.60;5.65;;;;;;;13.39;85.01;100501.25;5069055;28;20474;-63
2022/12/25 11:21:23;;;;;;;10.88;6.22;;;;;;;13.25;84.98;100511.78;5081749;28;20053;-63
2022/12/25 11:24:14;;;;;;;11.95;6.38;;;;;;;13.32;84.95;100518.38;5094681;28;20051;-63
2022/12/25 11:26:50;;;;;;;11.20;5.35;;;;;;;13.37;84.92;100525.69;5088151;28;20056;-64
2022/12/25 11:29:24;;;;;;;16.42;5.65;;;;;;;13.33;84.49;100544.94;5085330;28;20044;-64
2022/12/25 11:31:53;;;;;;;13.07;5.93;;;;;;;13.41;84.48;100552.34;5087819;28;20066;-64
2022/12/25 11:34:40;;;;;;;12.65;5.82;;;;;;;13.41;85.43;100555.09;5076884;28;20047;-64
2022/12/25 11:37:14;;;;;;;14.30;5.80;;;;;;;13.37;84.46;100548.63;5058375;28;20519;-63
2022/12/25 11:39:42;;;;;;;11.48;5.95;;;;;;;13.65;84.60;100551.66;5094809;28;20051;-63
2022/12/25 11:42:26;;;;;;;11.40;5.93;;;;;;;13.66;83.67;100552.47;5076187;28;20162;-63
2022/12/25 11:45:28;;;;;;;10.25;6.22;;;;;;;13.64;82.99;100554.78;5083911;28;20056;-63
2022/12/25 11:48:10;;;;;;;10.65;6.07;;;;;;;13.77;82.83;100554.53;5095385;28;20044;-64
2022/12/25 11:50:45;;;;;;;13.43;6.50;;;;;;;13.69;83.12;100547.09;5095451;28;20059;-63
2022/12/25 11:53:21;;;;;;;8.98;5.65;;;;;;;13.70;82.88;100542.38;5088078;28;20050;-64
2022/12/25 11:55:53;;;;;;;10.32;6.05;;;;;;;13.80;82.51;100526.16;5078729;28;20411;-62
2022/12/25 11:58:24;;;;;;;8.52;5.32;;;;;;;13.76;81.70;100519.66;5098177;28;20056;-63
2022/12/25 12:00:53;;;;;;;10.23;5.65;;;;;;;13.70;81.95;100520.22;5077985;28;20053;-63
2022/12/25 12:03:27;;;;;;;12.63;7.05;;;;;;;13.93;81.54;100521.47;5082167;28;20059;-63
2022/12/25 12:06:01;;;;;;;20.35;11.25;;;;;;;13.87;81.21;100525.59;5080142;28;20509;-63
2022/12/25 12:08:29;;;;;;;15.43;8.32;;;;;;;13.93;80.97;100513.97;5075416;28;20403;-63
2022/12/25 12:11:16;;;;;;;10.88;6.00;;;;;;;14.05;81.06;100511.22;5074102;28;20051;-63
2022/12/25 12:13:50;;;;;;;12.98;7.45;;;;;;;14.01;80.38;100504.78;5111913;28;20471;-63
2022/12/25 12:16:17;;;;;;;15.13;10.02;;;;;;;14.17;80.70;100493.84;5084581;28;20423;-62
2022/12/25 12:18:45;;;;;;;16.17;10.10;;;;;;;14.09;80.77;100503.88;5097685;28;20040;-63
2022/12/25 12:21:16;;;;;;;9.95;5.22;;;;;;;14.07;80.24;100492.31;5073397;28;20447;-64
2022/12/25 12:24:15;;;;;;;7.90;3.97;;;;;;;14.30;78.97;100487.22;5079444;28;20398;-63
2022/12/25 12:26:44;;;;;;;9.83;4.73;;;;;;;14.28;78.60;100483.97;5085508;28;20049;-63
2022/12/25 12:29:28;;;;;;;10.45;4.90;;;;;;;14.32;77.93;100465.50;5082474;28;20052;-62
2022/12/25 12:31:59;;;;;;;11.60;4.95;;;;;;;14.26;77.87;100458.59;5084519;28;20063;-63
2022/12/25 12:34:41;;;;;;;10.18;5.28;;;;;;;14.00;78.50;100471.88;5097722;28;20050;-63
2022/12/25 12:37:19;;;;;;;10.25;5.47;;;;;;;14.02;78.76;100470.38;5083371;28;20043;-62
2022/12/25 12:39:53;;;;;;;6.90;4.85;;;;;;;14.03;78.78;100490.59;5079842;28;20035;-63
2022/12/25 12:42:39;;;;;;;10.13;5.15;;;;;;;14.18;79.13;100492.69;5076820;28;20048;-64
2022/12/25 12:45:09;;;;;;;9.45;4.75;;;;;;;14.04;78.72;100500.50;5082265;28;20047;-63
2022/12/25 12:47:40;;;;;;;9.80;5.32;;;;;;;14.10;78.15;100488.06;5075034;28;20062;-63
2022/12/25 12:50:35;;;;;;;11.48;5.30;;;;;;;14.04;78.05;100478.34;5077477;28;20048;-63
2022/12/25 12:53:21;;;;;;;9.10;5.15;;;;;;;14.06;78.98;100484.34;5053886;28;20074;-63
2022/12/25 12:55:49;;;;;;;11.85;4.72;;;;;;;14.40;78.04;100465.41;5096467;28;20051;-63
2022/12/25 12:58:31;;;;;;;9.73;4.63;;;;;;;14.34;77.75;100466.78;5096324;28;20050;-63
2022/12/25 13:01:34;;;;;;;8.93;4.43;;;;;;;14.51;78.79;100476.84;5096535;28;20048;-62
2022/12/25 13:04:17;;;;;;;10.10;4.43;;;;;;;14.86;79.54;100483.56;5044377;28;20105;-62
2022/12/25 13:06:52;;;;;;;10.02;4.75;;;;;;;15.01;80.57;100455.09;5089050;28;20052;-62
2022/12/25 13:09:47;;;;;;;10.38;4.63;;;;;;;14.96;76.65;100452.56;5079299;28;20055;-62